Time;durP1;ratioP1;P1;durP2;ratioP2;P2;SDS_P1;SDS_P2;PMS_P1;PMS_P2;Temp;Humidity;BMP_temperature;BMP_pressure;BME280_temperature;BME280_humidity;BME280_pressure;Samples;Min_cycle;Max_cycle;Signal;HPM_P1;HPM_P2
2023/12/06 00:01:43;;;;;;;0.00;0.00;;;4.40;99.90;;;;;;5098735;28;20171;-65
2023/12/06 00:04:08;;;;;;;0.00;0.00;;;4.40;99.90;;;;;;5097042;28;20249;-66
2023/12/06 00:06:34;;;;;;;0.00;0.00;;;4.40;99.90;;;;;;5108647;28;20232;-65
2023/12/06 00:08:59;;;;;;;0.00;0.00;;;4.40;99.90;;;;;;5103344;28;20600;-65
2023/12/06 00:11:25;;;;;;;0.00;0.00;;;4.40;99.90;;;;;;5098739;28;20247;-65
2023/12/06 00:13:51;;;;;;;0.00;0.00;;;4.40;99.90;;;;;;5107795;28;20168;-65
2023/12/06 00:16:16;;;;;;;0.00;0.00;;;4.40;99.90;;;;;;5113037;28;20175;-66
2023/12/06 00:18:43;;;;;;;0.00;0.00;;;4.50;99.90;;;;;;5113919;28;20164;-66
2023/12/06 00:21:09;;;;;;;0.00;0.00;;;4.40;99.90;;;;;;5111113;28;20180;-66
2023/12/06 00:23:35;;;;;;;0.00;0.00;;;4.50;99.90;;;;;;5101648;28;20192;-66
2023/12/06 00:26:00;;;;;;;0.00;0.00;;;4.50;99.90;;;;;;5108494;28;20187;-66
2023/12/06 00:28:26;;;;;;;0.00;0.00;;;4.50;99.90;;;;;;5110843;28;20266;-65
2023/12/06 00:30:51;;;;;;;0.00;0.00;;;4.50;99.90;;;;;;5101420;28;20249;-66
2023/12/06 00:33:17;;;;;;;0.00;0.00;;;4.50;99.90;;;;;;5112989;28;20270;-65
2023/12/06 00:35:42;;;;;;;0.00;0.00;;;4.50;99.90;;;;;;5110910;28;20223;-65
2023/12/06 00:38:09;;;;;;;0.00;0.00;;;4.50;99.90;;;;;;5105333;28;20374;-65
2023/12/06 00:40:34;;;;;;;0.00;0.00;;;4.50;99.90;;;;;;5100705;28;20249;-66
2023/12/06 00:43:03;;;;;;;0.00;0.00;;;4.50;99.90;;;;;;5094060;28;20688;-65
2023/12/06 00:45:29;;;;;;;0.00;0.00;;;4.50;99.90;;;;;;5096344;28;20188;-65
2023/12/06 00:47:55;;;;;;;0.00;0.00;;;4.50;99.90;;;;;;5105502;28;20194;-66
2023/12/06 00:50:20;;;;;;;0.00;0.00;;;4.50;99.90;;;;;;5106631;28;20297;-66
2023/12/06 00:52:46;;;;;;;0.00;0.00;;;4.50;99.90;;;;;;5103130;28;20241;-65
2023/12/06 00:55:12;;;;;;;0.00;0.00;;;4.50;99.90;;;;;;5108055;28;20238;-66
2023/12/06 00:57:37;;;;;;;0.00;0.00;;;4.60;99.90;;;;;;5099629;28;20183;-66
2023/12/06 01:00:03;;;;;;;0.00;0.00;;;4.50;99.90;;;;;;5096973;28;20495;-66
2023/12/06 01:02:29;;;;;;;0.00;0.00;;;4.50;99.90;;;;;;5091533;28;20198;-67
2023/12/06 01:04:54;;;;;;;0.00;0.00;;;4.50;99.90;;;;;;5091290;28;20570;-67
2023/12/06 01:07:20;;;;;;;0.00;0.00;;;4.50;99.90;;;;;;5101361;28;20262;-67
2023/12/06 01:09:46;;;;;;;0.10;0.10;;;4.60;99.90;;;;;;5095806;28;20185;-65
2023/12/06 01:12:11;;;;;;;0.00;0.00;;;4.50;99.90;;;;;;5100306;28;20187;-66
2023/12/06 01:14:37;;;;;;;0.00;0.00;;;4.50;99.90;;;;;;5109930;28;20202;-67
2023/12/06 01:17:02;;;;;;;0.00;0.00;;;4.50;99.90;;;;;;5107763;28;20674;-66
2023/12/06 01:19:28;;;;;;;0.00;0.00;;;4.60;99.90;;;;;;5092333;28;20179;-68
2023/12/06 01:21:54;;;;;;;0.00;0.00;;;4.50;99.90;;;;;;5093678;28;20186;-66
2023/12/06 01:24:19;;;;;;;0.00;0.00;;;4.60;99.90;;;;;;5109419;28;20222;-66
2023/12/06 01:26:45;;;;;;;0.00;0.00;;;4.60;99.90;;;;;;5106606;28;20172;-66
2023/12/06 01:29:11;;;;;;;0.00;0.00;;;4.60;99.90;;;;;;5099980;28;20183;-66
2023/12/06 01:31:38;;;;;;;0.00;0.00;;;4.60;99.90;;;;;;5107709;28;20239;-66
2023/12/06 01:34:03;;;;;;;0.00;0.00;;;4.50;99.90;;;;;;5096967;28;20215;-66
2023/12/06 01:36:29;;;;;;;0.00;0.00;;;4.60;99.90;;;;;;5095581;28;20645;-66
2023/12/06 01:38:54;;;;;;;0.00;0.00;;;4.60;99.90;;;;;;5093352;28;20172;-66
2023/12/06 01:41:20;;;;;;;0.00;0.00;;;4.60;99.90;;;;;;5099168;28;20188;-66
2023/12/06 01:43:45;;;;;;;0.00;0.00;;;4.60;99.90;;;;;;5092572;28;20202;-66
2023/12/06 01:46:11;;;;;;;0.00;0.00;;;4.60;99.90;;;;;;5102834;28;20205;-66
2023/12/06 01:48:37;;;;;;;0.00;0.00;;;4.60;99.90;;;;;;5092518;28;20191;-66
2023/12/06 01:51:04;;;;;;;0.00;0.00;;;4.60;99.90;;;;;;5097116;28;20220;-66
2023/12/06 01:53:30;;;;;;;0.00;0.00;;;4.60;99.90;;;;;;5100170;28;20248;-66
2023/12/06 01:55:55;;;;;;;0.00;0.00;;;4.60;99.90;;;;;;5104550;28;20183;-66
2023/12/06 01:58:22;;;;;;;0.00;0.00;;;4.60;99.90;;;;;;5106088;28;20183;-66
2023/12/06 02:00:48;;;;;;;0.00;0.00;;;4.60;99.90;;;;;;5094909;28;20634;-66
2023/12/06 02:03:15;;;;;;;0.00;0.00;;;4.60;99.90;;;;;;5097979;28;20221;-67
2023/12/06 02:05:42;;;;;;;0.00;0.00;;;4.60;99.90;;;;;;5094798;28;20167;-66
2023/12/06 02:08:08;;;;;;;0.00;0.00;;;4.60;99.90;;;;;;5096374;28;20187;-66
2023/12/06 02:10:33;;;;;;;0.00;0.00;;;4.60;99.90;;;;;;5100538;28;20674;-66
2023/12/06 02:12:59;;;;;;;0.00;0.00;;;4.60;99.90;;;;;;5099787;28;20192;-67
2023/12/06 02:15:25;;;;;;;0.00;0.00;;;4.60;99.90;;;;;;5096727;28;20177;-67
2023/12/06 02:17:51;;;;;;;0.00;0.00;;;4.60;99.90;;;;;;5104015;28;20175;-65
2023/12/06 02:20:17;;;;;;;0.00;0.00;;;4.70;99.90;;;;;;5110114;28;20251;-65
2023/12/06 02:22:43;;;;;;;0.00;0.00;;;4.70;99.90;;;;;;5107447;28;20653;-66
2023/12/06 02:25:20;;;;;;;0.00;0.00;;;4.70;99.90;;;;;;5091512;28;20180;-65
2023/12/06 02:27:46;;;;;;;0.00;0.00;;;4.70;99.90;;;;;;5106941;28;20183;-66
2023/12/06 02:30:12;;;;;;;0.00;0.00;;;4.70;99.90;;;;;;5091783;28;20230;-65
2023/12/06 02:32:38;;;;;;;0.00;0.00;;;4.70;99.90;;;;;;5097237;28;20254;-65
2023/12/06 02:35:10;;;;;;;0.00;0.00;;;4.70;99.90;;;;;;5091481;28;20330;-66
2023/12/06 02:37:38;;;;;;;0.00;0.00;;;4.70;99.90;;;;;;5099807;28;20681;-65
2023/12/06 02:40:06;;;;;;;0.00;0.00;;;4.70;99.90;;;;;;5102256;28;20176;-65
2023/12/06 02:42:31;;;;;;;0.00;0.00;;;4.70;99.90;;;;;;5086399;28;20232;-67
2023/12/06 02:44:57;;;;;;;0.00;0.00;;;4.70;99.90;;;;;;5095569;28;20186;-65
2023/12/06 02:47:23;;;;;;;0.00;0.00;;;4.70;99.90;;;;;;5104596;28;20207;-66
2023/12/06 02:49:48;;;;;;;0.00;0.00;;;4.70;99.90;;;;;;5100499;28;20836;-65
2023/12/06 02:52:16;;;;;;;0.00;0.00;;;4.70;99.90;;;;;;5091318;28;20188;-65
2023/12/06 02:54:41;;;;;;;0.00;0.00;;;4.70;99.90;;;;;;5093102;28;20207;-66
2023/12/06 02:57:07;;;;;;;0.00;0.00;;;4.70;99.90;;;;;;5095810;28;20187;-65
2023/12/06 02:59:32;;;;;;;0.00;0.00;;;4.70;99.90;;;;;;5106970;28;20175;-65
2023/12/06 03:01:58;;;;;;;0.00;0.00;;;4.70;99.90;;;;;;5105643;28;20218;-66
2023/12/06 03:04:23;;;;;;;0.00;0.00;;;4.70;99.90;;;;;;5112030;28;20631;-66
2023/12/06 03:06:49;;;;;;;0.00;0.00;;;4.70;99.90;;;;;;5109982;28;20193;-65
2023/12/06 03:09:14;;;;;;;0.00;0.00;;;4.70;99.90;;;;;;5105269;28;20222;-65
2023/12/06 03:11:40;;;;;;;0.00;0.00;;;4.80;99.90;;;;;;5103838;28;20544;-64
2023/12/06 03:14:05;;;;;;;0.00;0.00;;;4.70;99.90;;;;;;5110211;28;20175;-65
2023/12/06 03:16:32;;;;;;;0.00;0.00;;;4.70;99.90;;;;;;5109732;28;20221;-65
2023/12/06 03:18:57;;;;;;;0.00;0.00;;;4.80;99.90;;;;;;5099224;28;20184;-66
2023/12/06 03:21:23;;;;;;;0.00;0.00;;;4.80;99.90;;;;;;5108071;28;20320;-66
2023/12/06 03:23:48;;;;;;;0.00;0.00;;;4.80;99.90;;;;;;5100024;28;20196;-66
2023/12/06 03:26:14;;;;;;;0.00;0.00;;;4.80;99.90;;;;;;5093434;28;20184;-66
2023/12/06 03:28:39;;;;;;;0.00;0.00;;;4.80;99.90;;;;;;5096839;28;20647;-66
2023/12/06 03:31:05;;;;;;;0.00;0.00;;;4.80;99.90;;;;;;5103120;28;20278;-66
2023/12/06 03:33:30;;;;;;;0.00;0.00;;;4.80;99.90;;;;;;5100717;28;20537;-66
2023/12/06 03:35:56;;;;;;;0.00;0.00;;;4.80;99.90;;;;;;5104811;28;20220;-65
2023/12/06 03:38:21;;;;;;;0.00;0.00;;;4.80;99.90;;;;;;5107453;28;20178;-65
2023/12/06 03:40:47;;;;;;;0.00;0.00;;;4.80;99.90;;;;;;5102990;28;20638;-66
2023/12/06 03:43:12;;;;;;;0.00;0.00;;;4.80;99.90;;;;;;5098780;28;20179;-68
2023/12/06 03:45:38;;;;;;;0.00;0.00;;;4.80;99.90;;;;;;5108553;28;20262;-66
2023/12/06 03:48:03;;;;;;;0.00;0.00;;;4.80;99.90;;;;;;5102529;28;20233;-65
2023/12/06 03:50:29;;;;;;;0.00;0.00;;;4.80;99.90;;;;;;5098786;28;20262;-67
2023/12/06 03:52:54;;;;;;;0.00;0.00;;;4.80;99.90;;;;;;5094871;28;20639;-67
2023/12/06 03:55:21;;;;;;;0.00;0.00;;;4.90;99.90;;;;;;5098509;28;20188;-67
2023/12/06 03:57:47;;;;;;;0.00;0.00;;;4.90;99.90;;;;;;5094329;28;20176;-67
2023/12/06 04:00:13;;;;;;;0.00;0.00;;;4.90;99.90;;;;;;5096344;28;20178;-66
2023/12/06 04:02:39;;;;;;;0.00;0.00;;;4.90;99.90;;;;;;5110985;28;20194;-67
2023/12/06 04:05:05;;;;;;;0.00;0.00;;;4.90;99.90;;;;;;5104771;28;20171;-66
2023/12/06 04:07:30;;;;;;;0.00;0.00;;;4.90;99.90;;;;;;5099103;28;20176;-66
2023/12/06 04:09:55;;;;;;;0.00;0.00;;;4.90;99.90;;;;;;5105305;28;20643;-66
2023/12/06 04:12:21;;;;;;;0.00;0.00;;;4.90;99.90;;;;;;5100274;28;20180;-66
2023/12/06 04:14:47;;;;;;;0.00;0.00;;;4.90;99.90;;;;;;5104348;28;20266;-66
2023/12/06 04:17:12;;;;;;;0.00;0.00;;;4.90;99.90;;;;;;5109417;28;20212;-66
2023/12/06 04:19:40;;;;;;;0.00;0.00;;;4.90;99.90;;;;;;5097011;28;20172;-66
2023/12/06 04:22:06;;;;;;;0.00;0.00;;;4.90;99.90;;;;;;5094000;28;20266;-65
2023/12/06 04:24:32;;;;;;;0.00;0.00;;;4.90;99.90;;;;;;5098654;28;20317;-65
2023/12/06 04:26:58;;;;;;;0.00;0.00;;;4.90;99.90;;;;;;5093719;28;20549;-66
2023/12/06 04:29:23;;;;;;;0.00;0.00;;;4.90;99.90;;;;;;5094965;28;20177;-66
2023/12/06 04:31:49;;;;;;;0.00;0.00;;;4.90;99.90;;;;;;5107442;28;20558;-66
2023/12/06 04:34:14;;;;;;;0.00;0.00;;;4.90;99.90;;;;;;5103052;28;20191;-66
2023/12/06 04:36:40;;;;;;;0.00;0.00;;;4.90;99.90;;;;;;5098291;28;20696;-66
2023/12/06 04:39:06;;;;;;;0.00;0.00;;;4.90;99.90;;;;;;5096613;28;20180;-66
2023/12/06 04:41:31;;;;;;;0.00;0.00;;;4.90;99.90;;;;;;5113734;28;20175;-65
2023/12/06 04:43:57;;;;;;;0.00;0.00;;;4.90;99.90;;;;;;5103040;28;20184;-66
2023/12/06 04:46:22;;;;;;;0.00;0.00;;;4.90;99.90;;;;;;5099417;28;20237;-67
2023/12/06 04:48:48;;;;;;;0.00;0.00;;;4.90;99.90;;;;;;5099907;28;20187;-64
2023/12/06 04:51:15;;;;;;;0.00;0.00;;;4.90;99.90;;;;;;5095565;28;20239;-62
2023/12/06 04:53:41;;;;;;;0.10;0.10;;;4.90;99.90;;;;;;5109402;28;20250;-67
2023/12/06 04:56:07;;;;;;;0.00;0.00;;;4.90;99.90;;;;;;5101283;28;20271;-64
2023/12/06 04:58:32;;;;;;;0.00;0.00;;;4.90;99.90;;;;;;5093092;28;20180;-64
2023/12/06 05:00:58;;;;;;;0.00;0.00;;;4.90;99.90;;;;;;5093043;28;20188;-65
2023/12/06 05:03:23;;;;;;;0.00;0.00;;;4.90;99.90;;;;;;5093325;28;20221;-64
2023/12/06 05:05:49;;;;;;;0.00;0.00;;;4.80;99.90;;;;;;5113014;28;20263;-65
2023/12/06 05:08:14;;;;;;;0.00;0.00;;;4.90;99.90;;;;;;5100360;28;20184;-66
2023/12/06 05:10:40;;;;;;;0.00;0.00;;;4.90;99.90;;;;;;5092425;28;20216;-65
2023/12/06 05:13:05;;;;;;;0.00;0.00;;;4.80;99.90;;;;;;5092953;28;20175;-67
2023/12/06 05:15:31;;;;;;;0.00;0.00;;;4.80;99.90;;;;;;5092694;28;20191;-65
2023/12/06 05:17:56;;;;;;;0.00;0.00;;;4.80;99.90;;;;;;5101014;28;20588;-67
2023/12/06 05:20:22;;;;;;;0.00;0.00;;;4.80;99.90;;;;;;5092293;28;20192;-66
2023/12/06 05:22:47;;;;;;;0.00;0.00;;;4.80;99.90;;;;;;5092878;28;20175;-65
2023/12/06 05:25:13;;;;;;;0.00;0.00;;;4.90;99.90;;;;;;5092037;28;20545;-65
2023/12/06 05:27:38;;;;;;;0.00;0.00;;;4.80;99.90;;;;;;5092523;28;20192;-66
2023/12/06 05:30:06;;;;;;;0.00;0.00;;;4.90;99.90;;;;;;5095537;28;20388;-66
2023/12/06 05:32:32;;;;;;;0.00;0.00;;;4.90;99.90;;;;;;5111990;28;20194;-66
2023/12/06 05:34:57;;;;;;;0.00;0.00;;;4.90;99.90;;;;;;5100500;28;20546;-66
2023/12/06 05:37:23;;;;;;;0.00;0.00;;;4.90;99.90;;;;;;5094310;28;20246;-65
2023/12/06 05:39:48;;;;;;;0.00;0.00;;;4.90;99.90;;;;;;5091854;28;20205;-66
2023/12/06 05:42:14;;;;;;;0.00;0.00;;;4.90;99.90;;;;;;5097323;28;20238;-65
2023/12/06 05:44:39;;;;;;;0.00;0.00;;;4.80;99.90;;;;;;5091354;28;20645;-66
2023/12/06 05:47:05;;;;;;;0.00;0.00;;;4.90;99.90;;;;;;5092060;28;20639;-65
2023/12/06 05:49:30;;;;;;;0.00;0.00;;;4.80;99.90;;;;;;5089923;28;20262;-65
2023/12/06 05:51:56;;;;;;;0.00;0.00;;;4.80;99.90;;;;;;5094056;28;20242;-65
2023/12/06 05:54:21;;;;;;;0.00;0.00;;;4.80;99.90;;;;;;5103693;28;20172;-65
2023/12/06 05:56:47;;;;;;;0.00;0.00;;;4.80;99.90;;;;;;5092256;28;20204;-66
2023/12/06 05:59:12;;;;;;;0.00;0.00;;;4.80;99.90;;;;;;5092192;28;20184;-65
2023/12/06 06:01:38;;;;;;;0.00;0.00;;;4.90;99.90;;;;;;5092152;28;20670;-65
2023/12/06 06:04:03;;;;;;;0.00;0.00;;;4.90;99.90;;;;;;5092011;28;20271;-65
2023/12/06 06:06:36;;;;;;;0.00;0.00;;;4.90;99.90;;;;;;5097587;28;20176;-65
2023/12/06 06:09:02;;;;;;;0.00;0.00;;;4.80;99.90;;;;;;5102212;28;20227;-65
2023/12/06 06:11:27;;;;;;;0.00;0.00;;;4.80;99.90;;;;;;5104493;28;20263;-65
2023/12/06 06:13:53;;;;;;;0.00;0.00;;;4.90;99.90;;;;;;5095264;28;20543;-65
2023/12/06 06:16:18;;;;;;;0.00;0.00;;;4.90;99.90;;;;;;5108479;28;20659;-65
2023/12/06 06:18:44;;;;;;;0.00;0.00;;;4.90;99.90;;;;;;5096308;28;20691;-66
2023/12/06 06:21:09;;;;;;;0.00;0.00;;;4.90;99.90;;;;;;5102739;28;20187;-65
2023/12/06 06:23:35;;;;;;;0.00;0.00;;;4.90;99.90;;;;;;5103344;28;20695;-64
2023/12/06 06:26:01;;;;;;;0.00;0.00;;;4.90;99.90;;;;;;5092652;28;20658;-64
2023/12/06 06:28:26;;;;;;;0.00;0.00;;;4.90;99.90;;;;;;5110898;28;20179;-65
2023/12/06 06:30:52;;;;;;;0.00;0.00;;;4.90;99.90;;;;;;5108227;28;20227;-65
2023/12/06 06:33:17;;;;;;;0.00;0.00;;;4.90;99.90;;;;;;5101878;28;20187;-64
2023/12/06 06:35:43;;;;;;;0.00;0.00;;;4.90;99.90;;;;;;5108195;28;20219;-65
2023/12/06 06:38:09;;;;;;;0.00;0.00;;;4.90;99.90;;;;;;5097729;28;20184;-65
2023/12/06 06:40:35;;;;;;;0.00;0.00;;;4.90;99.90;;;;;;5112031;28;20191;-65
2023/12/06 06:43:00;;;;;;;0.00;0.00;;;4.90;99.90;;;;;;5102939;28;20175;-65
2023/12/06 06:45:26;;;;;;;0.00;0.00;;;4.90;99.90;;;;;;5103627;28;20543;-65
2023/12/06 06:47:51;;;;;;;0.00;0.00;;;4.90;99.90;;;;;;5110051;28;20180;-65
2023/12/06 06:50:17;;;;;;;0.00;0.00;;;4.90;99.90;;;;;;5098586;28;20208;-64
2023/12/06 06:52:42;;;;;;;0.00;0.00;;;4.90;99.90;;;;;;5110900;28;20176;-65
2023/12/06 06:55:08;;;;;;;0.00;0.00;;;4.80;99.90;;;;;;5095786;28;20191;-65
2023/12/06 06:57:34;;;;;;;0.00;0.00;;;4.80;99.90;;;;;;5107234;28;20211;-65
2023/12/06 06:59:59;;;;;;;0.00;0.00;;;4.80;99.90;;;;;;5098748;28;20289;-65
2023/12/06 07:02:25;;;;;;;0.00;0.00;;;4.80;99.90;;;;;;5097827;28;20184;-66
2023/12/06 07:04:55;;;;;;;0.00;0.00;;;4.80;99.90;;;;;;5109778;28;20205;-65
2023/12/06 07:07:21;;;;;;;0.00;0.00;;;4.80;99.90;;;;;;5103969;28;20175;-65
2023/12/06 07:09:46;;;;;;;0.00;0.00;;;4.80;99.90;;;;;;5101868;28;20176;-65
2023/12/06 07:12:12;;;;;;;0.00;0.00;;;4.80;99.90;;;;;;5111553;28;20214;-66
2023/12/06 07:14:38;;;;;;;0.00;0.00;;;4.80;99.90;;;;;;5098649;28;20186;-65
2023/12/06 07:17:04;;;;;;;0.00;0.00;;;4.70;99.90;;;;;;5106957;28;20180;-65
2023/12/06 07:19:30;;;;;;;0.00;0.00;;;4.70;99.90;;;;;;5105602;28;20197;-65
2023/12/06 07:21:55;;;;;;;0.20;0.10;;;4.70;99.90;;;;;;5101128;28;20178;-65
2023/12/06 07:24:21;;;;;;;0.00;0.00;;;4.70;99.90;;;;;;5105623;28;20190;-65
2023/12/06 07:26:46;;;;;;;0.00;0.00;;;4.70;99.90;;;;;;5111025;28;20225;-64
2023/12/06 07:29:15;;;;;;;0.00;0.00;;;4.70;99.90;;;;;;5102571;28;20190;-65
2023/12/06 07:31:41;;;;;;;0.00;0.00;;;4.70;99.90;;;;;;5110112;28;20696;-65
2023/12/06 07:34:06;;;;;;;0.00;0.00;;;4.70;99.90;;;;;;5099575;28;20172;-65
2023/12/06 07:36:32;;;;;;;0.00;0.00;;;4.70;99.90;;;;;;5111308;28;20219;-65
2023/12/06 07:38:58;;;;;;;0.00;0.00;;;4.60;99.90;;;;;;5099823;28;20199;-65
2023/12/06 07:41:23;;;;;;;0.00;0.00;;;4.60;99.90;;;;;;5105894;28;20551;-66
2023/12/06 07:43:49;;;;;;;0.00;0.00;;;4.60;99.90;;;;;;5106933;28;20187;-65
2023/12/06 07:46:14;;;;;;;0.00;0.00;;;4.50;99.90;;;;;;5113660;28;20175;-65
2023/12/06 07:48:40;;;;;;;0.00;0.00;;;4.50;99.90;;;;;;5097517;28;20239;-65
2023/12/06 07:51:06;;;;;;;0.00;0.00;;;4.50;99.90;;;;;;5108219;28;20204;-65
2023/12/06 07:53:31;;;;;;;0.00;0.00;;;4.50;99.90;;;;;;5103729;28;20210;-66
2023/12/06 07:55:58;;;;;;;0.00;0.00;;;4.50;99.90;;;;;;5106090;28;20707;-66
2023/12/06 07:58:30;;;;;;;0.00;0.00;;;4.40;99.90;;;;;;5097441;28;20270;-66
2023/12/06 08:00:58;;;;;;;0.00;0.00;;;4.40;99.90;;;;;;5109712;28;20172;-67
2023/12/06 08:03:26;;;;;;;0.00;0.00;;;4.40;99.90;;;;;;5102439;28;20183;-67
2023/12/06 08:05:52;;;;;;;0.00;0.00;;;4.40;99.90;;;;;;5106883;28;20171;-65
2023/12/06 08:08:17;;;;;;;0.00;0.00;;;4.40;99.90;;;;;;5098290;28;20244;-65
2023/12/06 08:10:43;;;;;;;0.00;0.00;;;4.40;99.90;;;;;;5110399;28;20204;-66
2023/12/06 08:13:09;;;;;;;0.00;0.00;;;4.30;99.90;;;;;;5100303;28;20175;-66
2023/12/06 08:15:35;;;;;;;0.00;0.00;;;4.30;99.90;;;;;;5104340;28;20180;-66
2023/12/06 08:18:01;;;;;;;0.00;0.00;;;4.30;99.90;;;;;;5107355;28;20176;-65
2023/12/06 08:20:26;;;;;;;0.00;0.00;;;4.30;99.90;;;;;;5096624;28;20263;-66
2023/12/06 08:22:52;;;;;;;0.00;0.00;;;4.30;99.90;;;;;;5106550;28;20211;-66
2023/12/06 08:25:17;;;;;;;0.00;0.00;;;4.30;99.90;;;;;;5101348;28;20657;-66
2023/12/06 08:27:44;;;;;;;0.05;0.05;;;4.30;99.90;;;;;;5094069;28;20176;-66
2023/12/06 08:30:10;;;;;;;0.00;0.00;;;4.30;99.90;;;;;;5093785;28;20275;-66
2023/12/06 08:32:35;;;;;;;0.32;0.32;;;4.30;99.90;;;;;;5094055;28;20276;-64
2023/12/06 08:35:01;;;;;;;0.00;0.00;;;4.30;99.90;;;;;;5093915;28;20192;-65
2023/12/06 08:37:26;;;;;;;0.00;0.00;;;4.30;99.90;;;;;;5093827;28;20232;-66
2023/12/06 08:39:52;;;;;;;0.00;0.00;;;4.30;99.90;;;;;;5093787;28;20168;-66
2023/12/06 08:42:17;;;;;;;0.00;0.00;;;4.30;99.90;;;;;;5111965;28;20214;-66
2023/12/06 08:44:44;;;;;;;0.00;0.00;;;4.30;99.90;;;;;;5107332;28;20199;-63
2023/12/06 08:47:10;;;;;;;0.00;0.00;;;4.30;99.90;;;;;;5094917;28;20580;-65
2023/12/06 08:49:37;;;;;;;0.00;0.00;;;4.30;99.90;;;;;;5101263;28;20322;-64
2023/12/06 08:52:03;;;;;;;0.50;0.50;;;4.30;99.90;;;;;;5093518;28;20227;-64
2023/12/06 08:54:29;;;;;;;0.32;0.32;;;4.40;99.90;;;;;;5092247;28;20184;-65
2023/12/06 08:56:54;;;;;;;0.00;0.00;;;4.40;99.90;;;;;;5092581;28;20177;-64
2023/12/06 08:59:20;;;;;;;0.00;0.00;;;4.40;99.90;;;;;;5093614;28;20318;-64
2023/12/06 09:01:45;;;;;;;0.00;0.00;;;4.40;99.90;;;;;;5093410;28;20281;-64
2023/12/06 09:04:11;;;;;;;0.00;0.00;;;4.40;99.90;;;;;;5093419;28;20187;-64
2023/12/06 09:06:37;;;;;;;0.00;0.00;;;4.40;99.90;;;;;;5093457;28;20194;-63
2023/12/06 09:09:04;;;;;;;0.00;0.00;;;4.30;99.90;;;;;;5093233;28;20176;-64
2023/12/06 09:11:30;;;;;;;0.00;0.00;;;4.30;99.90;;;;;;5093399;28;20219;-64
2023/12/06 09:13:55;;;;;;;0.00;0.00;;;4.30;99.90;;;;;;5093172;28;20639;-64
2023/12/06 09:16:21;;;;;;;0.00;0.00;;;4.30;99.90;;;;;;5093232;28;20214;-64
2023/12/06 09:18:46;;;;;;;0.03;0.03;;;4.20;99.90;;;;;;5091949;28;20225;-65
2023/12/06 09:21:13;;;;;;;0.00;0.00;;;4.30;99.90;;;;;;5093106;28;20183;-65
2023/12/06 09:23:39;;;;;;;0.00;0.00;;;4.20;99.90;;;;;;5093088;28;20272;-64
2023/12/06 09:26:05;;;;;;;0.00;0.00;;;4.30;99.90;;;;;;5093037;28;20263;-65
2023/12/06 09:28:30;;;;;;;0.00;0.00;;;4.20;99.90;;;;;;5093092;28;20172;-65
2023/12/06 09:30:56;;;;;;;0.00;0.00;;;4.20;99.90;;;;;;5100121;28;20207;-65
2023/12/06 09:33:21;;;;;;;0.00;0.00;;;4.20;99.90;;;;;;5100773;28;20511;-66
2023/12/06 09:35:47;;;;;;;0.00;0.00;;;4.20;99.90;;;;;;5099561;28;20219;-65
2023/12/06 09:38:13;;;;;;;0.00;0.00;;;4.30;99.90;;;;;;5100411;28;20179;-65
2023/12/06 09:40:38;;;;;;;0.00;0.00;;;4.30;99.90;;;;;;5095386;28;20180;-64
2023/12/06 09:43:04;;;;;;;0.00;0.00;;;4.30;99.90;;;;;;5095112;28;20527;-64
2023/12/06 09:45:30;;;;;;;0.00;0.00;;;4.30;99.90;;;;;;5098543;28;20523;-65
2023/12/06 09:47:56;;;;;;;0.00;0.00;;;4.30;99.90;;;;;;5097913;28;20237;-64
2023/12/06 09:50:25;;;;;;;0.00;0.00;;;4.30;99.90;;;;;;5097993;28;20199;-65
2023/12/06 09:52:52;;;;;;;0.00;0.00;;;4.30;99.90;;;;;;5094247;28;20255;-64
2023/12/06 09:55:23;;;;;;;0.00;0.00;;;4.30;99.90;;;;;;5092510;28;20709;-64
2023/12/06 09:57:53;;;;;;;0.00;0.00;;;4.30;99.90;;;;;;5092552;28;20627;-64
2023/12/06 10:00:19;;;;;;;0.00;0.00;;;4.30;99.90;;;;;;5096620;28;20177;-65
2023/12/06 10:02:53;;;;;;;0.00;0.00;;;4.20;99.90;;;;;;5104763;28;20211;-66
2023/12/06 10:05:19;;;;;;;0.00;0.00;;;4.20;99.90;;;;;;5097121;28;20192;-66
2023/12/06 10:07:46;;;;;;;0.00;0.00;;;4.20;99.90;;;;;;5099149;28;20589;-64
2023/12/06 10:10:20;;;;;;;0.10;0.10;;;4.20;99.90;;;;;;5111615;28;20270;-64
2023/12/06 10:12:49;;;;;;;0.00;0.00;;;4.20;99.90;;;;;;5099798;28;20174;-65
2023/12/06 10:15:16;;;;;;;0.00;0.00;;;4.20;99.90;;;;;;5093833;28;20188;-65
2023/12/06 10:17:42;;;;;;;0.00;0.00;;;4.20;99.90;;;;;;5108310;28;20183;-65
2023/12/06 10:20:08;;;;;;;0.03;0.03;;;4.10;99.90;;;;;;5098416;28;20175;-64
2023/12/06 10:22:34;;;;;;;0.00;0.00;;;4.10;99.90;;;;;;5105273;28;20657;-64
2023/12/06 10:25:00;;;;;;;0.20;0.20;;;4.10;99.90;;;;;;5111534;28;20313;-64
2023/12/06 10:27:27;;;;;;;0.00;0.00;;;4.20;99.90;;;;;;5094988;28;20669;-64
2023/12/06 10:29:52;;;;;;;0.00;0.00;;;4.30;99.90;;;;;;5107235;28;20689;-65
2023/12/06 10:32:19;;;;;;;0.00;0.00;;;4.30;99.90;;;;;;5100166;28;20222;-65
2023/12/06 10:34:46;;;;;;;0.00;0.00;;;4.40;99.90;;;;;;5099638;28;20211;-65
2023/12/06 10:37:14;;;;;;;0.00;0.00;;;4.40;99.90;;;;;;5091617;28;20590;-64
2023/12/06 10:39:42;;;;;;;0.30;0.30;;;4.40;99.90;;;;;;5108017;28;20186;-65
2023/12/06 10:42:14;;;;;;;0.00;0.00;;;4.40;99.90;;;;;;5105001;28;20184;-65
2023/12/06 10:44:41;;;;;;;0.00;0.00;;;4.40;99.90;;;;;;5102544;28;20179;-65
2023/12/06 10:47:08;;;;;;;0.00;0.00;;;4.40;99.90;;;;;;5096988;28;20267;-64
2023/12/06 10:49:36;;;;;;;0.00;0.00;;;4.40;99.90;;;;;;5108118;28;20179;-64
2023/12/06 10:52:03;;;;;;;0.00;0.00;;;4.40;99.90;;;;;;5096873;28;20211;-64
2023/12/06 10:54:29;;;;;;;0.00;0.00;;;4.40;99.90;;;;;;5102509;28;20281;-65
2023/12/06 10:56:56;;;;;;;0.00;0.00;;;4.30;99.90;;;;;;5091774;28;20214;-65
2023/12/06 10:59:25;;;;;;;0.00;0.00;;;4.30;99.90;;;;;;5107552;28;20666;-65
2023/12/06 11:01:53;;;;;;;0.00;0.00;;;4.30;99.90;;;;;;5095009;28;20256;-65
2023/12/06 11:04:21;;;;;;;0.00;0.00;;;4.20;99.90;;;;;;5104023;28;20181;-65
2023/12/06 11:07:24;;;;;;;0.28;0.28;;;4.20;99.90;;;;;;5091668;28;20197;-65
2023/12/06 11:10:09;;;;;;;0.00;0.00;;;4.30;99.90;;;;;;5094906;28;20185;-66
2023/12/06 11:13:06;;;;;;;0.00;0.00;;;4.30;99.90;;;;;;5102102;28;20579;-66
2023/12/06 11:15:41;;;;;;;0.00;0.00;;;4.30;99.90;;;;;;5107344;28;20271;-65
2023/12/06 11:18:23;;;;;;;0.00;0.00;;;4.30;99.90;;;;;;5096910;28;20232;-65
2023/12/06 11:20:49;;;;;;;0.00;0.00;;;4.30;99.90;;;;;;5101909;28;20184;-65
2023/12/06 11:23:17;;;;;;;0.22;0.22;;;4.30;99.90;;;;;;5109930;28;20195;-66
2023/12/06 11:25:44;;;;;;;0.00;0.00;;;4.30;99.90;;;;;;5098312;28;20636;-66
2023/12/06 11:28:13;;;;;;;0.15;0.15;;;4.30;99.90;;;;;;5109605;28;20695;-65
2023/12/06 11:30:55;;;;;;;0.10;0.10;;;4.30;99.90;;;;;;5097172;28;20215;-65
2023/12/06 11:33:20;;;;;;;0.00;0.00;;;4.30;99.90;;;;;;5110511;28;20274;-65
2023/12/06 11:35:54;;;;;;;0.00;0.00;;;4.30;99.90;;;;;;5094519;28;20693;-65
2023/12/06 11:38:34;;;;;;;0.00;0.00;;;4.30;99.90;;;;;;5101926;28;20180;-65
2023/12/06 11:41:01;;;;;;;0.00;0.00;;;4.30;99.90;;;;;;5102515;28;20175;-65
2023/12/06 11:43:31;;;;;;;0.00;0.00;;;4.30;99.90;;;;;;5096009;28;20248;-66
2023/12/06 11:46:10;;;;;;;0.00;0.00;;;4.30;99.90;;;;;;5098070;28;20690;-65
2023/12/06 11:48:38;;;;;;;0.00;0.00;;;4.30;99.90;;;;;;5106060;28;20575;-66
2023/12/06 11:51:04;;;;;;;0.00;0.00;;;4.30;99.90;;;;;;5106881;28;20215;-66
2023/12/06 11:53:30;;;;;;;0.10;0.10;;;4.40;99.90;;;;;;5114845;28;20176;-66
2023/12/06 11:55:56;;;;;;;0.43;0.43;;;4.40;99.90;;;;;;5097656;28;20558;-65
2023/12/06 11:58:28;;;;;;;0.05;0.05;;;4.30;99.90;;;;;;5108073;28;20188;-65
2023/12/06 12:00:53;;;;;;;0.08;0.08;;;4.30;99.90;;;;;;5105278;28;20219;-66
2023/12/06 12:03:19;;;;;;;0.00;0.00;;;4.30;99.90;;;;;;5098713;28;20513;-66
2023/12/06 12:05:46;;;;;;;0.00;0.00;;;4.40;99.90;;;;;;5102985;28;20230;-66
2023/12/06 12:08:12;;;;;;;0.00;0.00;;;4.40;99.90;;;;;;5109570;28;20192;-66
2023/12/06 12:10:38;;;;;;;0.00;0.00;;;4.50;99.90;;;;;;5102591;28;20603;-66
2023/12/06 12:13:03;;;;;;;0.00;0.00;;;4.40;99.90;;;;;;5102096;28;20199;-66
2023/12/06 12:15:30;;;;;;;0.00;0.00;;;4.50;99.90;;;;;;5096522;28;20260;-66
2023/12/06 12:17:56;;;;;;;0.00;0.00;;;4.50;99.90;;;;;;5109287;28;20175;-65
2023/12/06 12:20:22;;;;;;;0.10;0.10;;;4.40;99.90;;;;;;5099878;28;20172;-65
2023/12/06 12:22:50;;;;;;;0.00;0.00;;;4.50;99.90;;;;;;5103076;28;20191;-65
2023/12/06 12:25:17;;;;;;;0.00;0.00;;;4.50;99.90;;;;;;5107488;28;20533;-65
2023/12/06 12:27:47;;;;;;;0.00;0.00;;;4.50;99.90;;;;;;5097073;28;20180;-65
2023/12/06 12:30:13;;;;;;;0.00;0.00;;;4.50;99.90;;;;;;5109402;27;20256;-65
2023/12/06 12:32:44;;;;;;;0.00;0.00;;;4.50;99.90;;;;;;5102016;28;20266;-65
2023/12/06 12:35:11;;;;;;;0.00;0.00;;;4.50;99.90;;;;;;5099445;28;20226;-65
2023/12/06 12:37:37;;;;;;;0.00;0.00;;;4.60;99.90;;;;;;5093666;28;20259;-63
2023/12/06 12:40:03;;;;;;;0.00;0.00;;;4.60;99.90;;;;;;5096695;28;20183;-64
2023/12/06 12:42:29;;;;;;;0.30;0.30;;;4.70;99.90;;;;;;5107260;28;20258;-65
2023/12/06 12:44:55;;;;;;;0.45;0.22;;;4.60;99.90;;;;;;5103352;28;20262;-65
2023/12/06 12:47:21;;;;;;;0.00;0.00;;;4.70;99.90;;;;;;5100428;28;20184;-65
2023/12/06 12:49:48;;;;;;;0.00;0.00;;;4.70;99.90;;;;;;5109999;28;20182;-65
2023/12/06 12:52:15;;;;;;;0.63;0.63;;;4.70;99.90;;;;;;5096745;28;20203;-64
2023/12/06 12:54:41;;;;;;;0.00;0.00;;;4.70;99.90;;;;;;5106990;28;20240;-65